Jack, Alabama
Current Conditions -  °F | °C
As of 6:56 PM on Tuesday 25 Nov 2014 (Local Time) from KSXS Reporting Station
Rain Showers Rain Showers  
Wind Chill: 49°   Ceiling: 9000
Heat Index: 49°   Visibility: 10mi
Dew Point: 47°   Wind: 3mph
Humidity: 95%   Direction: 300°WNW
Pressure: 30.13"   Gusts: NA
Location:  31.6°N, 85.91°W
Report Text: KSXS 260056Z AUTO 30003KT 10SM -SHRA BKN090 BKN100 09/09 A3013 RMK AO2 SLP206 T00930085
Loading
Personal Weather Stations






























Interactive Weather Map New forecast layout! Learn more

10-Day Weather Forecast

Advertisements
Track Severe Weather on mobile